Time;durP1;ratioP1;P1;durP2;ratioP2;P2;SDS_P1;SDS_P2;PMS_P1;PMS_P2;Temp;Humidity;BMP_temperature;BMP_pressure;BME280_temperature;BME280_humidity;BME280_pressure;Samples;Min_cycle;Max_cycle;Signal;HPM_P1;HPM_P2
2024/01/26 00:02:04;;;;;;;;;;;4.10;100.00;;;;;;5047041;28;19929;-72
2024/01/26 00:04:31;;;;;;;;;;;4.10;100.00;;;;;;5046477;28;19971;-72
2024/01/26 00:06:58;;;;;;;;;;;4.00;100.00;;;;;;5048266;28;19933;-72
2024/01/26 00:09:26;;;;;;;;;;;3.90;100.00;;;;;;5050686;28;19972;-72
2024/01/26 00:11:53;;;;;;;;;;;3.90;100.00;;;;;;5049374;28;19929;-72
2024/01/26 00:14:19;;;;;;;;;;;3.90;100.00;;;;;;5049230;28;20464;-72
2024/01/26 00:16:46;;;;;;;;;;;3.80;100.00;;;;;;5047801;28;19936;-72
2024/01/26 00:19:13;;;;;;;;;;;3.80;100.00;;;;;;5047679;28;19939;-72
2024/01/26 00:21:40;;;;;;;;;;;3.70;100.00;;;;;;5047548;28;20421;-72
2024/01/26 00:24:07;;;;;;;;;;;3.70;100.00;;;;;;5047909;28;20011;-72
2024/01/26 00:26:34;;;;;;;;;;;3.60;100.00;;;;;;5047249;28;19929;-72
2024/01/26 00:29:00;;;;;;;;;;;3.60;100.00;;;;;;5044801;28;20381;-72
2024/01/26 00:31:27;;;;;;;;;;;3.60;100.00;;;;;;5045896;28;19929;-72
2024/01/26 00:33:54;;;;;;;;;;;3.60;100.00;;;;;;5046519;28;20561;-72
2024/01/26 00:36:21;;;;;;;;;;;3.50;100.00;;;;;;5047827;28;19929;-72
2024/01/26 00:38:48;;;;;;;;;;;3.50;100.00;;;;;;5047927;28;19968;-72
2024/01/26 00:41:15;;;;;;;;;;;3.50;100.00;;;;;;5046471;28;19933;-72
2024/01/26 00:43:41;;;;;;;;;;;3.40;100.00;;;;;;5046136;28;20308;-71
2024/01/26 00:46:08;;;;;;;;;;;3.40;100.00;;;;;;5046333;28;19929;-71
2024/01/26 00:48:35;;;;;;;;;;;3.40;100.00;;;;;;5047004;28;19929;-71
2024/01/26 00:51:06;;;;;;;;;;;3.30;100.00;;;;;;5044735;28;19928;-71
2024/01/26 00:53:33;;;;;;;;;;;3.30;100.00;;;;;;5045712;28;19933;-72
2024/01/26 00:56:00;;;;;;;;;;;3.30;100.00;;;;;;5052639;28;19921;-72
2024/01/26 00:58:26;;;;;;;;;;;3.40;100.00;;;;;;5069074;28;19929;-72
2024/01/26 01:00:53;;;;;;;;;;;3.40;100.00;;;;;;5047500;28;19979;-72
2024/01/26 01:03:20;;;;;;;;;;;3.40;100.00;;;;;;5046719;28;19932;-72
2024/01/26 01:05:47;;;;;;;;;;;3.40;100.00;;;;;;5045231;28;20035;-72
2024/01/26 01:08:14;;;;;;;;;;;3.40;100.00;;;;;;5046133;28;19959;-72
2024/01/26 01:10:41;;;;;;;;;;;3.40;100.00;;;;;;5045683;28;19976;-72
2024/01/26 01:13:10;;;;;;;;;;;3.30;100.00;;;;;;5045295;28;20015;-72
2024/01/26 01:15:40;;;;;;;;;;;3.30;100.00;;;;;;5046786;28;20703;-72
2024/01/26 01:18:07;;;;;;;;;;;3.30;100.00;;;;;;5038618;28;19968;-72
2024/01/26 01:20:34;;;;;;;;;;;3.20;100.00;;;;;;5045973;28;19929;-72
2024/01/26 01:23:02;;;;;;;;;;;3.20;100.00;;;;;;5044461;28;19928;-72
2024/01/26 01:25:29;;;;;;;;;;;3.10;100.00;;;;;;5046140;28;20377;-72
2024/01/26 01:27:55;;;;;;;;;;;3.10;100.00;;;;;;5046021;28;19978;-72
2024/01/26 01:30:22;;;;;;;;;;;3.00;100.00;;;;;;5046509;28;19972;-72
2024/01/26 01:32:49;;;;;;;;;;;3.00;100.00;;;;;;5046772;28;19933;-72
2024/01/26 01:35:16;;;;;;;;;;;2.90;100.00;;;;;;5044976;28;20766;-72
2024/01/26 01:37:43;;;;;;;;;;;2.90;100.00;;;;;;5043887;28;19935;-72
2024/01/26 01:40:10;;;;;;;;;;;2.90;100.00;;;;;;5044462;28;19929;-72
2024/01/26 01:42:36;;;;;;;;;;;2.90;100.00;;;;;;5045649;28;19984;-72
2024/01/26 01:45:11;;;;;;;;;;;3.00;100.00;;;;;;5045081;28;20289;-72
2024/01/26 01:47:38;;;;;;;;;;;3.00;100.00;;;;;;5046051;28;19990;-72
2024/01/26 01:50:05;;;;;;;;;;;3.00;100.00;;;;;;5045372;28;19948;-72
2024/01/26 01:52:33;;;;;;;;;;;3.00;100.00;;;;;;5044953;28;19929;-72
2024/01/26 01:55:00;;;;;;;;;;;3.10;100.00;;;;;;5045005;28;19932;-72
2024/01/26 01:57:31;;;;;;;;;;;3.10;100.00;;;;;;5043867;28;19928;-72
2024/01/26 01:59:59;;;;;;;;;;;3.20;100.00;;;;;;5044426;28;20027;-72
2024/01/26 02:02:26;;;;;;;;;;;3.20;100.00;;;;;;5045777;28;19929;-72
2024/01/26 02:04:53;;;;;;;;;;;3.20;100.00;;;;;;5045848;28;19929;-72
2024/01/26 02:07:20;;;;;;;;;;;3.20;100.00;;;;;;5045743;28;19929;-72
2024/01/26 02:09:46;;;;;;;;;;;3.20;100.00;;;;;;5045573;28;20024;-73
2024/01/26 02:12:13;;;;;;;;;;;3.20;100.00;;;;;;5045650;28;20332;-72
2024/01/26 02:14:40;;;;;;;;;;;3.20;100.00;;;;;;5044297;28;20615;-72
2024/01/26 02:17:07;;;;;;;;;;;3.20;100.00;;;;;;5045838;28;20002;-72
2024/01/26 02:19:33;;;;;;;;;;;3.20;100.00;;;;;;5046336;28;19929;-72
2024/01/26 02:22:00;;;;;;;;;;;3.10;100.00;;;;;;5045649;28;19944;-72
2024/01/26 02:24:27;;;;;;;;;;;3.10;100.00;;;;;;5036959;28;19929;-72
2024/01/26 02:26:54;;;;;;;;;;;3.10;100.00;;;;;;5045006;28;20019;-72
2024/01/26 02:29:21;;;;;;;;;;;3.10;100.00;;;;;;5045562;28;19947;-73
2024/01/26 02:31:47;;;;;;;;;;;3.10;100.00;;;;;;5044603;28;19943;-72
2024/01/26 02:34:14;;;;;;;;;;;3.10;100.00;;;;;;5044209;28;20309;-73
2024/01/26 02:36:41;;;;;;;;;;;3.10;100.00;;;;;;5044893;28;19978;-72
2024/01/26 02:39:10;;;;;;;;;;;3.00;100.00;;;;;;5045019;28;20003;-73
2024/01/26 02:41:36;;;;;;;;;;;3.00;100.00;;;;;;5043939;28;20377;-72
2024/01/26 02:44:03;;;;;;;;;;;3.00;100.00;;;;;;5041047;28;19929;-72
2024/01/26 02:46:30;;;;;;;;;;;3.00;100.00;;;;;;5040096;28;20419;-72
2024/01/26 02:48:57;;;;;;;;;;;2.90;100.00;;;;;;5044873;28;19935;-72
2024/01/26 02:51:24;;;;;;;;;;;2.90;100.00;;;;;;5045172;28;19939;-72
2024/01/26 02:53:51;;;;;;;;;;;2.80;100.00;;;;;;5044369;28;20015;-72
2024/01/26 02:56:18;;;;;;;;;;;2.80;100.00;;;;;;5044197;28;19928;-72
2024/01/26 02:58:44;;;;;;;;;;;2.80;100.00;;;;;;5044676;28;19939;-72
2024/01/26 03:01:11;;;;;;;;;;;2.70;100.00;;;;;;5041819;28;19933;-72
2024/01/26 03:03:38;;;;;;;;;;;2.70;100.00;;;;;;5043117;28;19933;-72
2024/01/26 03:06:06;;;;;;;;;;;2.70;100.00;;;;;;5045677;28;19929;-72
2024/01/26 03:08:32;;;;;;;;;;;2.70;100.00;;;;;;5044669;28;19940;-72
2024/01/26 03:10:59;;;;;;;;;;;2.80;100.00;;;;;;5044779;28;19925;-73
2024/01/26 03:13:26;;;;;;;;;;;2.80;100.00;;;;;;5045150;28;20003;-72
2024/01/26 03:15:53;;;;;;;;;;;2.80;100.00;;;;;;5038574;28;19932;-72
2024/01/26 03:18:20;;;;;;;;;;;2.90;100.00;;;;;;5043752;28;20549;-72
2024/01/26 03:20:47;;;;;;;;;;;2.90;100.00;;;;;;5042640;28;20055;-72
2024/01/26 03:23:14;;;;;;;;;;;3.00;100.00;;;;;;5045610;28;20289;-72
2024/01/26 03:25:40;;;;;;;;;;;3.10;100.00;;;;;;5045109;28;20018;-73
2024/01/26 03:28:07;;;;;;;;;;;3.10;100.00;;;;;;5045099;28;19934;-72
2024/01/26 03:30:34;;;;;;;;;;;3.10;100.00;;;;;;5044712;28;19970;-72
2024/01/26 03:33:01;;;;;;;;;;;3.20;100.00;;;;;;5045147;28;19928;-72
2024/01/26 03:35:28;;;;;;;;;;;3.20;100.00;;;;;;5046297;28;19929;-72
2024/01/26 03:37:55;;;;;;;;;;;3.20;100.00;;;;;;5048311;28;19952;-72
2024/01/26 03:40:24;;;;;;;;;;;3.30;100.00;;;;;;5047514;28;19946;-72
2024/01/26 03:42:51;;;;;;;;;;;3.30;100.00;;;;;;5047835;28;19929;-72
2024/01/26 03:45:18;;;;;;;;;;;3.30;100.00;;;;;;5047863;28;20020;-72
2024/01/26 03:47:45;;;;;;;;;;;3.40;100.00;;;;;;5047200;28;20014;-72
2024/01/26 03:50:12;;;;;;;;;;;3.40;100.00;;;;;;5048736;28;19936;-72
2024/01/26 03:52:39;;;;;;;;;;;3.40;100.00;;;;;;5048364;28;20016;-72
2024/01/26 03:55:06;;;;;;;;;;;3.50;100.00;;;;;;5046108;28;20027;-72
2024/01/26 03:57:35;;;;;;;;;;;3.50;100.00;;;;;;5047839;28;19929;-73
2024/01/26 04:00:05;;;;;;;;;;;3.50;100.00;;;;;;5042103;28;19928;-72
2024/01/26 04:02:32;;;;;;;;;;;3.50;100.00;;;;;;5047773;28;19936;-73
2024/01/26 04:04:59;;;;;;;;;;;3.60;100.00;;;;;;5046660;28;20416;-73
2024/01/26 04:07:26;;;;;;;;;;;3.60;100.00;;;;;;5045909;28;19928;-73
2024/01/26 04:09:52;;;;;;;;;;;3.60;100.00;;;;;;5047002;28;19983;-72
2024/01/26 04:12:19;;;;;;;;;;;3.60;100.00;;;;;;5048172;28;19929;-72
2024/01/26 04:14:46;;;;;;;;;;;3.70;100.00;;;;;;5047326;28;19936;-72
2024/01/26 04:17:13;;;;;;;;;;;3.70;100.00;;;;;;5046175;28;20574;-73
2024/01/26 04:19:39;;;;;;;;;;;3.70;100.00;;;;;;5047946;28;19928;-72
2024/01/26 04:22:06;;;;;;;;;;;3.70;100.00;;;;;;5048286;28;19929;-73
2024/01/26 04:24:36;;;;;;;;;;;3.70;100.00;;;;;;5046588;28;19933;-73
2024/01/26 04:27:03;;;;;;;;;;;3.80;100.00;;;;;;5047857;28;19939;-73
2024/01/26 04:29:30;;;;;;;;;;;3.80;100.00;;;;;;5046203;28;19931;-73
2024/01/26 04:31:57;;;;;;;;;;;3.80;100.00;;;;;;5046064;28;19929;-72
2024/01/26 04:34:24;;;;;;;;;;;3.80;100.00;;;;;;5045124;28;19929;-73
2024/01/26 04:36:51;;;;;;;;;;;3.80;100.00;;;;;;5046047;28;20021;-73
2024/01/26 04:39:18;;;;;;;;;;;3.80;100.00;;;;;;5046391;28;19968;-72
2024/01/26 04:41:45;;;;;;;;;;;3.90;100.00;;;;;;5047709;28;19948;-73
2024/01/26 04:44:12;;;;;;;;;;;3.90;100.00;;;;;;5047015;28;19928;-72
2024/01/26 04:46:39;;;;;;;;;;;3.90;100.00;;;;;;5046740;28;20388;-73
2024/01/26 04:49:06;;;;;;;;;;;3.90;100.00;;;;;;5046825;28;19972;-73
2024/01/26 04:51:36;;;;;;;;;;;3.90;100.00;;;;;;5046003;28;20659;-73
2024/01/26 04:54:03;;;;;;;;;;;3.90;100.00;;;;;;5038543;28;19979;-73
2024/01/26 04:56:29;;;;;;;;;;;3.90;100.00;;;;;;5047180;28;19928;-73
2024/01/26 04:58:57;;;;;;;;;;;3.90;100.00;;;;;;5047625;28;19939;-72
2024/01/26 05:01:24;;;;;;;;;;;3.90;100.00;;;;;;5047707;28;20002;-73
2024/01/26 05:03:51;;;;;;;;;;;3.90;100.00;;;;;;5046369;28;19939;-73
2024/01/26 05:06:18;;;;;;;;;;;4.00;100.00;;;;;;5046760;28;20292;-73
2024/01/26 05:08:45;;;;;;;;;;;4.00;100.00;;;;;;5045463;28;19925;-73
2024/01/26 05:11:12;;;;;;;;;;;4.00;100.00;;;;;;5044097;28;19994;-73
2024/01/26 05:13:38;;;;;;;;;;;4.00;100.00;;;;;;5047119;28;20020;-73
2024/01/26 05:16:05;;;;;;;;;;;4.00;100.00;;;;;;5047017;28;20041;-72
2024/01/26 05:18:33;;;;;;;;;;;4.10;100.00;;;;;;5045258;28;19955;-72
2024/01/26 05:21:00;;;;;;;;;;;4.10;100.00;;;;;;5045062;28;19924;-72
2024/01/26 05:23:27;;;;;;;;;;;4.10;100.00;;;;;;5041808;28;20318;-72
2024/01/26 05:25:53;;;;;;;;;;;4.10;100.00;;;;;;5044109;28;19932;-72
2024/01/26 05:28:21;;;;;;;;;;;4.10;100.00;;;;;;5045848;28;19979;-72
2024/01/26 05:30:47;;;;;;;;;;;4.10;100.00;;;;;;5046670;28;20381;-72
2024/01/26 05:33:15;;;;;;;;;;;4.10;100.00;;;;;;5038774;28;19932;-73
2024/01/26 05:35:42;;;;;;;;;;;4.20;100.00;;;;;;5045133;28;19929;-72
2024/01/26 05:38:08;;;;;;;;;;;4.20;100.00;;;;;;5045328;28;19937;-72
2024/01/26 05:40:35;;;;;;;;;;;4.20;100.00;;;;;;5039492;28;19932;-72
2024/01/26 05:43:02;;;;;;;;;;;4.20;100.00;;;;;;5042706;28;19929;-72
2024/01/26 05:45:29;;;;;;;;;;;4.20;100.00;;;;;;5048848;28;20069;-72
2024/01/26 05:47:56;;;;;;;;;;;4.20;100.00;;;;;;5045411;28;19939;-74
2024/01/26 05:50:23;;;;;;;;;;;4.20;100.00;;;;;;5045080;28;19929;-74
2024/01/26 05:52:50;;;;;;;;;;;4.20;100.00;;;;;;5045820;28;20028;-75
2024/01/26 05:55:17;;;;;;;;;;;4.20;100.00;;;;;;5044014;28;19929;-74
2024/01/26 05:57:44;;;;;;;;;;;4.30;100.00;;;;;;5042361;28;20025;-73
2024/01/26 06:00:11;;;;;;;;;;;4.20;100.00;;;;;;5028606;28;20597;-73
2024/01/26 06:02:43;;;;;;;;;;;4.20;100.00;;;;;;5044845;28;19964;-75
2024/01/26 06:05:10;;;;;;;;;;;4.30;100.00;;;;;;5046216;28;19929;-70
2024/01/26 06:07:37;;;;;;;;;;;4.30;100.00;;;;;;5046138;28;19929;-71
2024/01/26 06:10:04;;;;;;;;;;;4.30;100.00;;;;;;5046218;28;19933;-71
2024/01/26 06:12:31;;;;;;;;;;;4.30;100.00;;;;;;5044917;28;19995;-70
2024/01/26 06:14:57;;;;;;;;;;;4.30;100.00;;;;;;5046312;28;20061;-71
2024/01/26 06:17:24;;;;;;;;;;;4.30;100.00;;;;;;5041725;28;19936;-71
2024/01/26 06:19:51;;;;;;;;;;;4.30;100.00;;;;;;5045490;28;19929;-70
2024/01/26 06:22:18;;;;;;;;;;;4.30;100.00;;;;;;5042839;28;19974;-69
2024/01/26 06:24:45;;;;;;;;;;;4.30;100.00;;;;;;5050911;28;19964;-70
2024/01/26 06:27:11;;;;;;;;;;;4.40;100.00;;;;;;5057886;28;19959;-70
2024/01/26 06:29:40;;;;;;;;;;;4.40;100.00;;;;;;5038898;28;19933;-70
2024/01/26 06:32:07;;;;;;;;;;;4.30;100.00;;;;;;5038326;28;19940;-71
2024/01/26 06:34:35;;;;;;;;;;;4.40;100.00;;;;;;5037507;28;20037;-72
2024/01/26 06:37:03;;;;;;;;;;;4.40;100.00;;;;;;5038216;28;21204;-72
2024/01/26 06:39:32;;;;;;;;;;;4.40;100.00;;;;;;5037900;28;19979;-73
2024/01/26 06:41:58;;;;;;;;;;;4.40;100.00;;;;;;5070539;28;20048;-73
2024/01/26 06:44:25;;;;;;;;;;;4.40;100.00;;;;;;5037934;28;19955;-72
2024/01/26 06:46:52;;;;;;;;;;;4.40;100.00;;;;;;5037622;28;20057;-72
2024/01/26 06:49:19;;;;;;;;;;;4.40;100.00;;;;;;5038011;28;19929;-72
2024/01/26 06:51:46;;;;;;;;;;;4.30;100.00;;;;;;5052503;28;19933;-72
2024/01/26 06:54:12;;;;;;;;;;;4.30;100.00;;;;;;5036884;28;20530;-72
2024/01/26 06:56:39;;;;;;;;;;;4.30;100.00;;;;;;5037534;28;20039;-72
2024/01/26 06:59:06;;;;;;;;;;;4.30;100.00;;;;;;5038344;28;20751;-72
2024/01/26 07:01:33;;;;;;;;;;;4.30;100.00;;;;;;5036099;28;19933;-72
2024/01/26 07:04:00;;;;;;;;;;;4.20;100.00;;;;;;5037744;28;20044;-72
2024/01/26 07:06:26;;;;;;;;;;;4.20;100.00;;;;;;5036540;28;20018;-72
2024/01/26 07:08:53;;;;;;;;;;;4.20;100.00;;;;;;5037332;28;20719;-72
2024/01/26 07:11:22;;;;;;;;;;;4.20;100.00;;;;;;5036880;28;20297;-72
2024/01/26 07:13:49;;;;;;;;;;;4.20;100.00;;;;;;5037117;28;20078;-73
2024/01/26 07:16:15;;;;;;;;;;;4.20;100.00;;;;;;5038067;28;19933;-73
2024/01/26 07:18:42;;;;;;;;;;;4.20;100.00;;;;;;5037345;28;19976;-72
2024/01/26 07:21:10;;;;;;;;;;;4.20;100.00;;;;;;5038030;28;20603;-73
2024/01/26 07:23:40;;;;;;;;;;;4.20;100.00;;;;;;5032709;28;19932;-72
2024/01/26 07:26:07;;;;;;;;;;;4.30;100.00;;;;;;5036719;28;20000;-72
2024/01/26 07:28:34;;;;;;;;;;;4.30;100.00;;;;;;5037695;28;19940;-72
2024/01/26 07:31:01;;;;;;;;;;;4.30;100.00;;;;;;5037026;28;19994;-72
2024/01/26 07:33:28;;;;;;;;;;;4.30;100.00;;;;;;5032822;28;20405;-72
2024/01/26 07:35:55;;;;;;;;;;;4.40;100.00;;;;;;5036504;28;19943;-72
2024/01/26 07:38:22;;;;;;;;;;;4.40;100.00;;;;;;5037186;28;19941;-72
2024/01/26 07:40:49;;;;;;;;;;;4.40;100.00;;;;;;5047877;28;19976;-72
2024/01/26 07:43:15;;;;;;;;;;;4.50;100.00;;;;;;5037533;28;19975;-72
2024/01/26 07:45:42;;;;;;;;;;;4.50;100.00;;;;;;5037784;28;19933;-72
2024/01/26 07:48:12;;;;;;;;;;;4.50;100.00;;;;;;5037480;28;19979;-72
2024/01/26 07:50:42;;;;;;;;;;;4.60;100.00;;;;;;5037019;28;20006;-73
2024/01/26 07:53:09;;;;;;;;;;;4.60;100.00;;;;;;5034936;28;19968;-72
2024/01/26 07:55:36;;;;;;;;;;;4.60;100.00;;;;;;5035156;28;19979;-72
2024/01/26 07:58:03;;;;;;;;;;;4.70;100.00;;;;;;5037102;28;19955;-72
2024/01/26 08:00:30;;;;;;;;;;;4.70;100.00;;;;;;5036762;28;19933;-72
2024/01/26 08:02:57;;;;;;;;;;;4.70;100.00;;;;;;5037612;28;19990;-72
2024/01/26 08:05:24;;;;;;;;;;;4.70;100.00;;;;;;5036684;28;20047;-72
2024/01/26 08:07:51;;;;;;;;;;;4.60;100.00;;;;;;5036874;28;19937;-72
2024/01/26 08:10:18;;;;;;;;;;;4.60;100.00;;;;;;5036944;28;19940;-72
2024/01/26 08:12:46;;;;;;;;;;;4.60;100.00;;;;;;5036740;28;19932;-73
2024/01/26 08:15:14;;;;;;;;;;;4.60;100.00;;;;;;5034953;28;20024;-73
2024/01/26 08:17:41;;;;;;;;;;;4.60;100.00;;;;;;5035656;28;20039;-73
2024/01/26 08:20:10;;;;;;;;;;;4.60;100.00;;;;;;5049286;28;19963;-73
2024/01/26 08:22:38;;;;;;;;;;;4.60;100.00;;;;;;5041410;28;19935;-73
2024/01/26 08:25:06;;;;;;;;;;;4.70;100.00;;;;;;5047445;28;20006;-73
2024/01/26 08:27:33;;;;;;;;;;;4.70;100.00;;;;;;5045808;28;19929;-73
2024/01/26 08:30:00;;;;;;;;;;;4.70;100.00;;;;;;5044988;28;19925;-73
2024/01/26 08:32:27;;;;;;;;;;;4.70;100.00;;;;;;5044952;28;19932;-72
2024/01/26 08:34:55;;;;;;;;;;;4.70;100.00;;;;;;5046556;28;20324;-72
2024/01/26 08:37:23;;;;;;;;;;;4.70;100.00;;;;;;5047151;28;19991;-72
2024/01/26 08:39:49;;;;;;;;;;;4.80;100.00;;;;;;5044024;28;19943;-73
2024/01/26 08:42:16;;;;;;;;;;;4.80;100.00;;;;;;5047201;28;20691;-72
2024/01/26 08:44:43;;;;;;;;;;;4.80;100.00;;;;;;5044218;28;19928;-72
2024/01/26 08:47:10;;;;;;;;;;;4.90;100.00;;;;;;5047605;28;19924;-72
2024/01/26 08:49:36;;;;;;;;;;;4.90;100.00;;;;;;5041815;28;19990;-72
2024/01/26 08:52:05;;;;;;;;;;;4.90;100.00;;;;;;5046291;28;19929;-72
2024/01/26 08:54:32;;;;;;;;;;;5.00;100.00;;;;;;5046248;28;20515;-72
2024/01/26 08:56:58;;;;;;;;;;;5.00;100.00;;;;;;5047321;28;19929;-72
2024/01/26 08:59:25;;;;;;;;;;;5.00;100.00;;;;;;5047844;28;20548;-73
2024/01/26 09:01:52;;;;;;;;;;;5.00;100.00;;;;;;5046482;28;19940;-72
2024/01/26 09:04:19;;;;;;;;;;;5.10;100.00;;;;;;5046446;28;19932;-72
2024/01/26 09:06:46;;;;;;;;;;;5.10;100.00;;;;;;5043308;28;20455;-72
2024/01/26 09:09:20;;;;;;;;;;;5.20;100.00;;;;;;5046465;28;19925;-72
2024/01/26 09:11:47;;;;;;;;;;;5.20;100.00;;;;;;5042277;28;19936;-72
2024/01/26 09:14:14;;;;;;;;;;;5.30;100.00;;;;;;5047777;28;20016;-73
2024/01/26 09:16:41;;;;;;;;;;;5.20;100.00;;;;;;5045721;28;19929;-73
2024/01/26 09:19:10;;;;;;;;;;;5.30;100.00;;;;;;5044951;28;19935;-73
2024/01/26 09:21:36;;;;;;;;;;;5.30;100.00;;;;;;5046000;28;20019;-72
2024/01/26 09:24:03;;;;;;;;;;;5.30;100.00;;;;;;5041550;28;19929;-73
2024/01/26 09:26:30;;;;;;;;;;;5.40;100.00;;;;;;5076807;28;20038;-73
2024/01/26 09:28:57;;;;;;;;;;;5.40;100.00;;;;;;5041946;28;20769;-73
2024/01/26 09:31:24;;;;;;;;;;;5.50;100.00;;;;;;5041914;28;19975;-73
2024/01/26 09:33:50;;;;;;;;;;;5.50;100.00;;;;;;5038810;28;21240;-74
2024/01/26 09:36:17;;;;;;;;;;;5.60;100.00;;;;;;5046748;28;19936;-74
2024/01/26 09:38:45;;;;;;;;;;;5.50;100.00;;;;;;5045640;28;20408;-73
2024/01/26 09:41:12;;;;;;;;;;;5.60;100.00;;;;;;5044428;28;19940;-72
2024/01/26 09:43:39;;;;;;;;;;;5.60;100.00;;;;;;5043762;28;20385;-73
2024/01/26 09:46:06;;;;;;;;;;;5.60;100.00;;;;;;5045439;28;19935;-73
2024/01/26 09:48:33;;;;;;;;;;;5.60;100.00;;;;;;5045182;28;19929;-73
2024/01/26 09:51:01;;;;;;;;;;;5.60;100.00;;;;;;5045650;28;19955;-73
2024/01/26 09:53:29;;;;;;;;;;;5.60;100.00;;;;;;5045507;28;20683;-72
2024/01/26 09:55:56;;;;;;;;;;;5.70;100.00;;;;;;5045430;28;19940;-73
2024/01/26 09:58:23;;;;;;;;;;;5.70;100.00;;;;;;5041895;28;19928;-74
2024/01/26 10:00:53;;;;;;;;;;;5.70;100.00;;;;;;5045270;28;19932;-73
2024/01/26 10:03:22;;;;;;;;;;;5.70;100.00;;;;;;5045208;28;20425;-73
2024/01/26 10:05:49;;;;;;;;;;;5.70;100.00;;;;;;5043209;28;19936;-73
2024/01/26 10:08:16;;;;;;;;;;;5.70;100.00;;;;;;5045634;28;20727;-73
2024/01/26 10:10:43;;;;;;;;;;;5.70;100.00;;;;;;5045740;28;20053;-73
2024/01/26 10:13:10;;;;;;;;;;;5.80;100.00;;;;;;5045888;28;19931;-73
2024/01/26 10:15:37;;;;;;;;;;;5.80;100.00;;;;;;5045166;28;19932;-73
2024/01/26 10:18:05;;;;;;;;;;;5.80;100.00;;;;;;5043829;28;19935;-73
2024/01/26 10:20:32;;;;;;;;;;;5.80;100.00;;;;;;5046083;28;19928;-72
2024/01/26 10:22:59;;;;;;;;;;;5.80;100.00;;;;;;5043577;28;20258;-72
2024/01/26 10:25:27;;;;;;;;;;;5.80;100.00;;;;;;5046145;28;20598;-73
2024/01/26 10:27:53;;;;;;;;;;;5.80;100.00;;;;;;5059667;28;19986;-73
2024/01/26 10:30:20;;;;;;;;;;;5.90;100.00;;;;;;5042672;28;19963;-73
2024/01/26 10:32:50;;;;;;;;;;;5.90;100.00;;;;;;5038204;28;19936;-73
2024/01/26 10:35:22;;;;;;;;;;;5.90;100.00;;;;;;5044170;28;20666;-73
2024/01/26 10:37:49;;;;;;;;;;;6.00;100.00;;;;;;5038426;28;19929;-73
2024/01/26 10:40:17;;;;;;;;;;;6.00;100.00;;;;;;5045577;28;19929;-73
2024/01/26 10:42:45;;;;;;;;;;;6.00;100.00;;;;;;5052503;28;20450;-73
2024/01/26 10:45:12;;;;;;;;;;;6.10;100.00;;;;;;5038612;28;19933;-73
2024/01/26 10:47:41;;;;;;;;;;;6.10;100.00;;;;;;5043448;28;20034;-73
2024/01/26 10:50:09;;;;;;;;;;;6.10;100.00;;;;;;5045780;28;20411;-73
2024/01/26 10:52:37;;;;;;;;;;;6.10;100.00;;;;;;5043924;28;20373;-74
2024/01/26 10:55:05;;;;;;;;;;;6.20;100.00;;;;;;5043859;28;19928;-73
2024/01/26 10:57:32;;;;;;;;;;;6.20;100.00;;;;;;5045294;28;19929;-74
2024/01/26 10:59:59;;;;;;;;;;;6.20;100.00;;;;;;5045651;28;19935;-73
2024/01/26 11:02:44;;;;;;;;;;;6.20;100.00;;;;;;5046624;28;19956;-73
2024/01/26 11:05:11;;;;;;;;;;;6.30;100.00;;;;;;5060046;28;20027;-73
2024/01/26 11:07:41;;;;;;;;;;;6.30;100.00;;;;;;5040343;28;19951;-73
2024/01/26 11:10:15;;;;;;;;;;;6.30;100.00;;;;;;5044792;28;19940;-73
2024/01/26 11:12:41;;;;;;;;;;;6.30;100.00;;;;;;5041842;28;19929;-73
2024/01/26 11:15:09;;;;;;;;;;;6.30;100.00;;;;;;5039370;28;19937;-73
2024/01/26 11:18:05;;;;;;;;;;;6.40;100.00;;;;;;5037888;28;20374;-73
2024/01/26 11:20:34;;;;;;;;;;;6.40;100.00;;;;;;5020476;28;19929;-74
2024/01/26 11:23:04;;;;;;;;;;;6.40;100.00;;;;;;5043279;28;19971;-75
2024/01/26 11:25:38;;;;;;;;;;;6.50;100.00;;;;;;5042657;28;20365;-74
2024/01/26 11:28:05;;;;;;;;;;;6.50;100.00;;;;;;5040224;28;20401;-74
2024/01/26 11:30:33;;;;;;;;;;;6.50;100.00;;;;;;5043302;28;19936;-74
2024/01/26 11:33:00;;;;;;;;;;;6.50;100.00;;;;;;5043416;28;20039;-74
2024/01/26 11:35:27;;;;;;;;;;;6.50;100.00;;;;;;5043761;28;20000;-74
2024/01/26 11:37:56;;;;;;;;;;;6.50;100.00;;;;;;5043369;28;20032;-74
2024/01/26 11:40:25;;;;;;;;;;;6.50;100.00;;;;;;5039876;28;19935;-74
2024/01/26 11:42:52;;;;;;;;;;;6.50;100.00;;;;;;5045481;28;20037;-74
2024/01/26 11:45:40;;;;;;;;;;;6.60;100.00;;;;;;5066853;28;19921;-74
2024/01/26 11:48:08;;;;;;;;;;;6.60;100.00;;;;;;5044711;28;19933;-74
2024/01/26 11:50:36;;;;;;;;;;;6.60;100.00;;;;;;5042666;28;19924;-74
2024/01/26 11:53:03;;;;;;;;;;;6.70;100.00;;;;;;5042371;28;19928;-73
2024/01/26 11:55:30;;;;;;;;;;;6.70;100.00;;;;;;5045310;28;19936;-69
2024/01/26 11:57:58;;;;;;;;;;;6.70;100.00;;;;;;5039920;28;20029;-73
2024/01/26 12:00:28;;;;;;;;;;;6.80;100.00;;;;;;5049302;28;19925;-75
2024/01/26 12:02:56;;;;;;;;;;;6.80;100.00;;;;;;5048123;28;20028;-74
2024/01/26 12:05:23;;;;;;;;;;;6.90;100.00;;;;;;5046762;28;20015;-73
2024/01/26 12:07:51;;;;;;;;;;;6.90;100.00;;;;;;5048126;28;19928;-73
2024/01/26 12:10:19;;;;;;;;;;;6.90;100.00;;;;;;5047699;28;19929;-73
2024/01/26 12:12:49;;;;;;;;;;;6.90;100.00;;;;;;5047490;28;20567;-73
2024/01/26 12:15:16;;;;;;;;;;;7.00;100.00;;;;;;5047850;28;19933;-73
2024/01/26 12:17:46;;;;;;;;;;;7.00;100.00;;;;;;5046031;28;20428;-73
2024/01/26 12:20:13;;;;;;;;;;;7.00;100.00;;;;;;5048290;28;19940;-74
2024/01/26 12:22:42;;;;;;;;;;;7.10;100.00;;;;;;5046743;28;19925;-74
2024/01/26 12:25:12;;;;;;;;;;;7.20;100.00;;;;;;5047454;28;19990;-75
2024/01/26 12:27:40;;;;;;;;;;;7.20;100.00;;;;;;5047455;28;19929;-75
2024/01/26 12:30:08;;;;;;;;;;;7.30;100.00;;;;;;5046221;28;20762;-72
2024/01/26 12:32:38;;;;;;;;;;;7.30;100.00;;;;;;5045792;28;20026;-73
2024/01/26 12:35:05;;;;;;;;;;;7.40;100.00;;;;;;5047934;28;19928;-72
2024/01/26 12:37:32;;;;;;;;;;;7.40;100.00;;;;;;5046061;28;20008;-71
2024/01/26 12:39:59;;;;;;;;;;;7.50;100.00;;;;;;5047737;28;19925;-72
2024/01/26 12:42:26;;;;;;;;;;;7.50;100.00;;;;;;5047585;28;20288;-72
2024/01/26 12:44:54;;;;;;;;;;;7.60;100.00;;;;;;5045568;28;20053;-72
2024/01/26 12:47:23;;;;;;;;;;;7.60;100.00;;;;;;5046184;28;19929;-73
2024/01/26 12:49:52;;;;;;;;;;;7.70;100.00;;;;;;5048499;28;19928;-71
2024/01/26 12:52:19;;;;;;;;;;;7.70;100.00;;;;;;5046067;28;19933;-73
2024/01/26 12:54:47;;;;;;;;;;;7.80;100.00;;;;;;5045695;28;19986;-72
2024/01/26 12:57:14;;;;;;;;;;;7.80;100.00;;;;;;5047612;28;19960;-73
2024/01/26 12:59:41;;;;;;;;;;;7.80;100.00;;;;;;5045784;28;20067;-73
2024/01/26 13:02:08;;;;;;;;;;;7.80;100.00;;;;;;5047001;28;20024;-74
2024/01/26 13:04:34;;;;;;;;;;;7.80;100.00;;;;;;5042995;28;19975;-73
2024/01/26 13:07:03;;;;;;;;;;;7.90;100.00;;;;;;5040774;28;20461;-72
2024/01/26 13:09:30;;;;;;;;;;;7.90;100.00;;;;;;5045986;28;19968;-73
2024/01/26 13:11:59;;;;;;;;;;;7.90;100.00;;;;;;5045005;28;19971;-73
2024/01/26 13:14:27;;;;;;;;;;;7.90;100.00;;;;;;5046692;28;19963;-73
2024/01/26 13:16:54;;;;;;;;;;;7.90;100.00;;;;;;5045843;28;19940;-72
2024/01/26 13:19:21;;;;;;;;;;;7.90;100.00;;;;;;5046562;28;19982;-72
2024/01/26 13:21:48;;;;;;;;;;;8.00;100.00;;;;;;5038945;28;19951;-72
2024/01/26 13:24:15;;;;;;;;;;;8.00;100.00;;;;;;5046425;28;20019;-72
2024/01/26 13:26:44;;;;;;;;;;;8.00;100.00;;;;;;5046501;28;19928;-73
2024/01/26 13:29:11;;;;;;;;;;;8.10;100.00;;;;;;5044196;28;19933;-72
2024/01/26 13:31:38;;;;;;;;;;;8.10;100.00;;;;;;5046026;28;19933;-73
2024/01/26 13:34:06;;;;;;;;;;;8.10;100.00;;;;;;5046399;28;19933;-74
2024/01/26 13:36:33;;;;;;;;;;;8.20;100.00;;;;;;5045785;28;19928;-72
2024/01/26 13:39:00;;;;;;;;;;;8.20;100.00;;;;;;5045801;28;20452;-72
2024/01/26 13:41:27;;;;;;;;;;;8.20;100.00;;;;;;5046486;28;20383;-72
2024/01/26 13:43:53;;;;;;;;;;;8.20;100.00;;;;;;5046821;28;19933;-73
2024/01/26 13:46:20;;;;;;;;;;;8.20;100.00;;;;;;5046001;28;20334;-73
2024/01/26 13:48:47;;;;;;;;;;;8.20;100.00;;;;;;5045098;28;19975;-72
2024/01/26 13:51:14;;;;;;;;;;;8.20;100.00;;;;;;5044130;28;20039;-73
2024/01/26 13:53:41;;;;;;;;;;;8.20;100.00;;;;;;5041560;28;19982;-73
2024/01/26 13:56:08;;;;;;;;;;;8.10;100.00;;;;;;5046125;28;19994;-73
2024/01/26 13:58:35;;;;;;;;;;;8.10;100.00;;;;;;5043504;28;19932;-72
2024/01/26 14:01:01;;;;;;;;;;;8.10;100.00;;;;;;5045249;28;19933;-72
2024/01/26 14:03:28;;;;;;;;;;;8.00;100.00;;;;;;5044781;28;20405;-72
2024/01/26 14:05:56;;;;;;;;;;;7.90;100.00;;;;;;5045845;28;19931;-72
2024/01/26 14:08:23;;;;;;;;;;;7.80;100.00;;;;;;5045568;28;20808;-72
2024/01/26 14:10:49;;;;;;;;;;;7.70;100.00;;;;;;5044645;28;19986;-73
2024/01/26 14:13:16;;;;;;;;;;;7.80;100.00;;;;;;5044026;28;19979;-72
2024/01/26 14:15:43;;;;;;;;;;;7.70;100.00;;;;;;5041948;28;19928;-72
2024/01/26 14:18:10;;;;;;;;;;;7.60;100.00;;;;;;5076288;28;19940;-73